Time;durP1;ratioP1;P1;durP2;ratioP2;P2;SDS_P1;SDS_P2;PMS_P1;PMS_P2;Temp;Humidity;BMP_temperature;BMP_pressure;BME280_temperature;BME280_humidity;BME280_pressure;Samples;Min_cycle;Max_cycle;Signal;HPM_P1;HPM_P2
2021/07/25 00:01:34;;;;;;;0.68;0.68;;;;;;;22.52;63.36;100908.34;5013657;28;20473;-91
2021/07/25 00:04:00;;;;;;;0.45;0.45;;;;;;;22.51;63.30;100911.16;5015104;28;20034;-91
2021/07/25 00:06:30;;;;;;;0.20;0.20;;;;;;;22.50;63.52;100912.13;5014885;28;20083;-91
2021/07/25 00:08:57;;;;;;;0.82;0.82;;;;;;;22.49;63.72;100908.53;5014319;28;20483;-91
2021/07/25 00:11:25;;;;;;;2.60;1.55;;;;;;;22.46;63.63;100898.81;5013559;28;20034;-91
2021/07/25 00:13:52;;;;;;;0.98;0.98;;;;;;;22.45;63.54;100901.63;5015064;28;20038;-90
2021/07/25 00:16:23;;;;;;;0.20;0.20;;;;;;;22.43;63.65;100904.44;5017447;28;20469;-90
2021/07/25 00:18:50;;;;;;;1.27;1.17;;;;;;;22.37;63.67;100899.47;5018553;28;20033;-91
2021/07/25 00:21:24;;;;;;;0.75;0.75;;;;;;;22.37;63.47;100893.16;5015426;28;20078;-90
2021/07/25 00:23:53;;;;;;;0.10;0.10;;;;;;;22.30;63.60;100893.59;5015086;28;20493;-90
2021/07/25 00:26:27;;;;;;;0.68;0.68;;;;;;;22.32;63.44;100895.31;5012531;28;20030;-90
2021/07/25 00:28:55;;;;;;;0.60;0.60;;;;;;;22.26;63.49;100889.38;5013365;28;20197;-90
2021/07/25 00:31:22;;;;;;;0.47;0.47;;;;;;;22.26;63.68;100891.22;5012733;28;20049;-90
2021/07/25 00:33:49;;;;;;;1.48;1.38;;;;;;;22.27;63.58;100882.16;5011923;28;20021;-89
2021/07/25 00:36:15;;;;;;;2.03;1.33;;;;;;;22.28;63.79;100873.06;5014765;28;20144;-90
2021/07/25 00:38:45;;;;;;;0.38;0.38;;;;;;;22.29;63.79;100870.28;5013352;28;20044;-90
2021/07/25 00:41:15;;;;;;;0.35;0.35;;;;;;;22.31;64.13;100878.28;5010132;28;20100;-90
2021/07/25 00:43:44;;;;;;;0.17;0.17;;;;;;;22.30;64.00;100882.78;5011967;28;20425;-90
2021/07/25 00:46:12;;;;;;;0.98;0.75;;;;;;;22.29;64.20;100881.09;5012280;28;20034;-90
2021/07/25 00:48:39;;;;;;;0.65;0.65;;;;;;;22.27;63.97;100882.16;5012833;28;20030;-88
2021/07/25 00:51:06;;;;;;;0.20;0.20;;;;;;;22.24;64.01;100877.84;5011711;28;20038;-90
2021/07/25 00:53:36;;;;;;;1.27;0.73;;;;;;;22.25;63.97;100871.44;5011500;28;20811;-91
2021/07/25 00:56:04;;;;;;;0.35;0.35;;;;;;;22.22;64.29;100868.97;5011098;28;20030;-90
2021/07/25 00:58:31;;;;;;;0.35;0.35;;;;;;;22.22;64.01;100863.56;5009698;28;20394;-89
2021/07/25 01:00:58;;;;;;;0.38;0.38;;;;;;;22.19;64.34;100866.47;5011571;28;20022;-90
2021/07/25 01:06:32;;;;;;;0.70;0.70;;;;;;;22.24;64.06;100861.66;5070861;28;20390;-89
2021/07/25 01:09:02;;;;;;;1.35;1.27;;;;;;;22.18;64.18;100862.06;5065502;28;20036;-89
2021/07/25 01:11:36;;;;;;;0.40;0.40;;;;;;;22.20;63.89;100859.25;5067751;28;20055;-89
2021/07/25 01:14:04;;;;;;;0.25;0.25;;;;;;;22.18;64.09;100866.59;5062544;28;20064;-89
2021/07/25 01:16:32;;;;;;;0.93;0.93;;;;;;;22.17;64.06;100863.03;5059415;28;20029;-89
2021/07/25 01:18:59;;;;;;;1.00;1.00;;;;;;;22.18;64.27;100856.66;5061916;28;20083;-89
2021/07/25 01:21:26;;;;;;;0.40;0.40;;;;;;;22.18;64.41;100864.78;5066969;28;20021;-90
2021/07/25 01:23:54;;;;;;;0.47;0.47;;;;;;;22.15;64.86;100859.56;5064994;28;21935;-89
2021/07/25 01:26:28;;;;;;;0.77;0.77;;;;;;;22.20;64.40;100861.97;5063783;28;20602;-89
2021/07/25 01:28:58;;;;;;;0.93;0.93;;;;;;;22.17;64.46;100857.63;5063028;28;20492;-89
2021/07/25 01:31:33;;;;;;;2.72;0.82;;;;;;;22.20;64.14;100862.81;5067414;28;20033;-89
2021/07/25 01:34:00;;;;;;;1.27;1.20;;;;;;;22.15;64.17;100867.66;5063169;28;20029;-89
2021/07/25 01:36:30;;;;;;;3.40;3.10;;;;;;;22.16;64.24;100861.31;5064567;28;20028;-89
2021/07/25 01:38:57;;;;;;;0.20;0.20;;;;;;;22.14;64.40;100866.81;5059770;28;20037;-90
2021/07/25 01:41:24;;;;;;;0.20;0.20;;;;;;;22.13;64.65;100865.06;5064187;28;20626;-90
2021/07/25 01:43:52;;;;;;;0.30;0.30;;;;;;;22.13;64.59;100869.59;5060023;28;20025;-90
2021/07/25 01:46:18;;;;;;;0.77;0.77;;;;;;;22.14;64.55;100874.91;5057386;28;20029;-89
2021/07/25 01:48:45;;;;;;;0.20;0.20;;;;;;;22.15;64.54;100870.34;5059327;28;20048;-90
2021/07/25 01:51:14;;;;;;;1.02;0.57;;;;;;;22.17;64.35;100875.66;5063307;28;20028;-89
2021/07/25 01:53:40;;;;;;;0.57;0.57;;;;;;;22.15;64.46;100867.66;5066123;28;20029;-89
2021/07/25 01:56:07;;;;;;;13.07;2.08;;;;;;;22.12;64.67;100862.50;5060022;28;20021;-90
2021/07/25 01:58:34;;;;;;;0.73;0.73;;;;;;;22.14;64.16;100860.53;5060541;28;20029;-90
2021/07/25 02:01:00;;;;;;;1.55;1.45;;;;;;;22.11;64.60;100858.06;5061913;28;20026;-89
2021/07/25 02:03:28;;;;;;;0.22;0.22;;;;;;;22.12;64.46;100859.78;5066937;28;20039;-90
2021/07/25 02:05:58;;;;;;;1.27;1.20;;;;;;;22.12;64.56;100863.34;5057483;28;20472;-90
2021/07/25 02:08:28;;;;;;;1.02;1.02;;;;;;;22.15;64.54;100867.66;5063615;28;20380;-91
2021/07/25 02:10:55;;;;;;;0.47;0.47;;;;;;;22.15;64.71;100859.56;5062386;28;20029;-90
2021/07/25 02:13:24;;;;;;;1.35;1.05;;;;;;;22.17;64.56;100864.84;5066269;28;20029;-90
2021/07/25 02:15:51;;;;;;;0.22;0.22;;;;;;;22.16;64.49;100864.00;5056434;28;20040;-90
2021/07/25 02:18:18;;;;;;;0.32;0.32;;;;;;;22.18;64.37;100856.66;5048942;28;20041;-90
2021/07/25 02:20:48;;;;;;;0.52;0.32;;;;;;;22.19;64.42;100846.72;5046595;28;20535;-91
2021/07/25 02:23:15;;;;;;;3.72;0.65;;;;;;;22.19;64.34;100844.88;5050875;28;20039;-91
2021/07/25 02:25:42;;;;;;;0.40;0.40;;;;;;;22.21;64.39;100840.25;5051022;28;20031;-89
2021/07/25 02:28:09;;;;;;;0.15;0.15;;;;;;;22.21;64.37;100834.84;5047893;28;20476;-89
2021/07/25 02:30:36;;;;;;;0.10;0.10;;;;;;;22.22;64.38;100847.38;5049429;28;20025;-89
2021/07/25 02:33:04;;;;;;;0.10;0.10;;;;;;;22.21;64.38;100825.91;5049707;28;20552;-88
2021/07/25 02:35:31;;;;;;;0.10;0.10;;;;;;;22.22;64.32;100828.50;5052915;28;20488;-89
2021/07/25 02:38:04;;;;;;;1.00;0.95;;;;;;;22.26;64.10;100819.19;5044797;28;20040;-89
2021/07/25 02:40:31;;;;;;;0.20;0.20;;;;;;;22.19;64.18;100823.28;5047192;28;20021;-89
2021/07/25 02:42:57;;;;;;;0.60;0.60;;;;;;;22.19;64.23;100817.03;5048293;28;20025;-89
2021/07/25 02:45:24;;;;;;;1.05;1.05;;;;;;;22.16;64.11;100815.44;5049286;28;20043;-89
2021/07/25 02:47:50;;;;;;;0.63;0.63;;;;;;;22.14;64.34;100811.97;5048221;28;20033;-89
2021/07/25 02:50:20;;;;;;;0.55;0.55;;;;;;;22.13;64.36;100800.31;5047685;28;20371;-89
2021/07/25 02:52:46;;;;;;;0.50;0.43;;;;;;;22.10;64.18;100800.50;5047269;28;20029;-89
2021/07/25 02:55:13;;;;;;;0.20;0.20;;;;;;;22.10;64.23;100799.66;5045954;28;20091;-89
2021/07/25 02:57:39;;;;;;;0.47;0.47;;;;;;;22.08;64.13;100802.47;5046344;28;20117;-90
2021/07/25 03:00:08;;;;;;;0.45;0.45;;;;;;;22.09;64.17;100803.31;5047011;28;20044;-89
2021/07/25 03:02:36;;;;;;;0.45;0.45;;;;;;;22.05;64.34;100807.22;5049190;28;20104;-89
2021/07/25 03:05:04;;;;;;;0.65;0.65;;;;;;;22.01;64.41;100822.75;5048976;28;20045;-89
2021/07/25 03:07:30;;;;;;;0.82;0.82;;;;;;;21.98;64.62;100813.03;5052604;28;20066;-89
2021/07/25 03:09:57;;;;;;;0.20;0.20;;;;;;;21.93;64.46;100817.00;5048452;28;20107;-89
2021/07/25 03:12:23;;;;;;;1.08;1.02;;;;;;;21.78;64.89;100821.59;5049179;28;20495;-89
2021/07/25 03:14:50;;;;;;;1.10;0.75;;;;;;;21.73;64.93;100819.25;5047439;28;20029;-89
2021/07/25 03:17:17;;;;;;;1.80;1.73;;;;;;;21.69;65.00;100823.09;5050980;28;20036;-89
2021/07/25 03:19:43;;;;;;;1.33;1.33;;;;;;;21.60;65.23;100832.66;5047069;28;20061;-89
2021/07/25 03:22:10;;;;;;;0.17;0.17;;;;;;;21.58;65.07;100818.44;5047203;28;20040;-89
2021/07/25 03:24:37;;;;;;;0.38;0.38;;;;;;;21.55;64.97;100820.44;5046925;28;20030;-89
2021/07/25 03:27:04;;;;;;;1.95;1.30;;;;;;;21.49;64.93;100827.09;5046680;28;20091;-89
2021/07/25 03:29:31;;;;;;;0.57;0.57;;;;;;;21.44;64.91;100826.53;5051641;28;20036;-89
2021/07/25 03:31:57;;;;;;;0.30;0.30;;;;;;;21.41;64.80;100827.59;5048319;28;20380;-90
2021/07/25 03:34:24;;;;;;;0.55;0.47;;;;;;;21.36;64.96;100836.94;5048766;28;20037;-89
2021/07/25 03:36:50;;;;;;;0.45;0.45;;;;;;;21.32;64.82;100825.50;5047011;28;20033;-89
2021/07/25 03:39:21;;;;;;;0.45;0.45;;;;;;;21.31;64.60;100819.25;5047681;28;20118;-88
2021/07/25 03:41:47;;;;;;;0.57;0.57;;;;;;;21.23;64.59;100826.13;5041628;28;20029;-88
2021/07/25 03:44:13;;;;;;;0.73;0.73;;;;;;;21.20;64.70;100816.41;5042867;28;20617;-89
2021/07/25 03:46:40;;;;;;;0.22;0.22;;;;;;;21.15;64.78;100815.84;5046244;28;20096;-88
2021/07/25 03:49:08;;;;;;;1.13;1.13;;;;;;;21.07;65.13;100816.34;5048808;28;20460;-89
2021/07/25 03:51:37;;;;;;;0.50;0.50;;;;;;;21.09;64.91;100808.16;5051883;28;20035;-89
2021/07/25 03:54:08;;;;;;;2.05;1.48;;;;;;;21.01;65.48;100816.75;5047206;28;20037;-89
2021/07/25 03:56:35;;;;;;;0.25;0.25;;;;;;;21.00;64.96;100815.88;5045855;28;20017;-89
2021/07/25 03:59:02;;;;;;;0.38;0.38;;;;;;;20.99;65.10;100808.75;5047301;28;20055;-90
2021/07/25 04:01:28;;;;;;;0.52;0.52;;;;;;;20.93;65.18;100803.75;5041741;28;20036;-91
2021/07/25 04:03:55;;;;;;;0.25;0.25;;;;;;;20.94;64.66;100799.25;5041184;28;20380;-89
2021/07/25 04:06:21;;;;;;;0.88;0.43;;;;;;;20.93;64.98;100808.28;5041059;28;20427;-90
2021/07/25 04:08:51;;;;;;;0.77;0.77;;;;;;;20.93;64.88;100803.75;5039224;28;20503;-90
2021/07/25 04:11:19;;;;;;;0.47;0.47;;;;;;;20.90;65.05;100806.66;5049925;28;20116;-90
2021/07/25 04:13:47;;;;;;;0.32;0.32;;;;;;;20.91;64.96;100808.38;5050947;28;20030;-89
2021/07/25 04:16:14;;;;;;;0.28;0.28;;;;;;;20.91;65.11;100810.19;5047924;28;20120;-89
2021/07/25 04:18:40;;;;;;;1.85;1.23;;;;;;;20.91;65.23;100810.19;5039986;28;20099;-89
2021/07/25 04:21:06;;;;;;;0.57;0.57;;;;;;;20.93;64.78;100797.50;5041515;28;20033;-88
2021/07/25 04:23:33;;;;;;;0.40;0.40;;;;;;;20.95;65.03;100803.69;5040836;28;20021;-89
2021/07/25 04:25:59;;;;;;;0.10;0.10;;;;;;;20.97;64.98;100805.31;5047568;28;20033;-88
2021/07/25 04:28:26;;;;;;;0.43;0.43;;;;;;;21.03;65.03;100803.19;5039747;28;20093;-89
2021/07/25 04:30:55;;;;;;;0.17;0.17;;;;;;;21.09;65.15;100802.78;5044210;28;20484;-89
2021/07/25 04:33:22;;;;;;;0.63;0.63;;;;;;;21.10;65.05;100804.50;5042440;28;20109;-88
2021/07/25 04:35:49;;;;;;;0.35;0.35;;;;;;;21.10;65.25;100804.50;5042539;28;20017;-89
2021/07/25 04:38:16;;;;;;;0.52;0.52;;;;;;;21.09;65.03;100814.41;5041751;28;20402;-89
2021/07/25 04:40:46;;;;;;;17.42;2.05;;;;;;;21.13;65.06;100810.56;5061784;28;20127;-88
2021/07/25 04:43:17;;;;;;;0.30;0.30;;;;;;;21.11;64.88;100812.50;5051159;28;20029;-89
2021/07/25 04:48:40;;;;;;;0.77;0.77;;;;;;;21.25;64.91;100808.88;5058457;28;20412;-89
2021/07/25 04:51:10;;;;;;;0.93;0.88;;;;;;;21.19;64.91;100811.97;5046245;28;20029;-89
2021/07/25 04:53:40;;;;;;;0.60;0.60;;;;;;;21.27;64.77;100806.97;5033972;28;20025;-88
2021/07/25 04:56:09;;;;;;;0.73;0.73;;;;;;;21.27;64.59;100806.09;5047944;28;20030;-89
2021/07/25 05:01:28;;;;;;;0.60;0.60;;;;;;;21.34;64.44;100802.88;5069879;28;20391;-88
2021/07/25 05:03:55;;;;;;;0.95;0.88;;;;;;;21.36;64.33;100796.53;5069719;28;20035;-88
2021/07/25 05:06:23;;;;;;;0.57;0.57;;;;;;;21.39;64.31;100801.72;5068352;28;20024;-89
2021/07/25 05:08:50;;;;;;;0.25;0.25;;;;;;;21.39;64.32;100816.06;5069305;28;20426;-89
2021/07/25 05:11:20;;;;;;;3.03;0.80;;;;;;;21.42;64.14;100806.91;5086151;28;20068;-89
2021/07/25 05:13:49;;;;;;;0.75;0.75;;;;;;;21.42;64.08;100823.06;5068879;28;20108;-89
2021/07/25 05:16:39;;;;;;;1.00;0.95;;;;;;;21.52;64.05;100817.94;5078678;28;20029;-89
2021/07/25 05:19:20;;;;;;;0.75;0.50;;;;;;;21.48;64.12;100820.84;5072847;28;20036;-89
2021/07/25 05:21:54;;;;;;;0.47;0.47;;;;;;;21.42;64.20;100831.16;5066739;28;20028;-89
2021/07/25 05:24:26;;;;;;;0.45;0.45;;;;;;;21.46;64.15;100828.16;5076774;28;20024;-89
2021/07/25 05:26:55;;;;;;;0.20;0.20;;;;;;;21.48;64.05;100830.75;5076002;28;20070;-89
2021/07/25 05:29:25;;;;;;;0.10;0.10;;;;;;;21.52;63.86;100831.41;5074220;28;20032;-89
2021/07/25 05:31:51;;;;;;;0.80;0.80;;;;;;;21.54;63.72;100824.94;5070915;28;20025;-89
2021/07/25 05:34:17;;;;;;;0.20;0.20;;;;;;;21.48;64.00;100831.63;5073504;28;20029;-89
2021/07/25 05:36:43;;;;;;;0.65;0.65;;;;;;;21.46;63.64;100838.09;5082873;28;20047;-89
2021/07/25 05:39:10;;;;;;;1.40;1.38;;;;;;;21.39;63.64;100847.53;5074175;28;20104;-89
2021/07/25 05:41:36;;;;;;;0.20;0.20;;;;;;;21.43;63.73;100843.66;5071591;28;20086;-88
2021/07/25 05:44:14;;;;;;;0.40;0.40;;;;;;;21.42;63.63;100847.31;5068685;28;20063;-91
2021/07/25 05:46:46;;;;;;;0.90;0.90;;;;;;;21.27;64.05;100843.81;5064234;28;20037;-89
2021/07/25 05:49:12;;;;;;;0.10;0.10;;;;;;;21.39;63.65;100842.16;5062386;28;20075;-92
2021/07/25 05:51:39;;;;;;;0.63;0.17;;;;;;;21.26;63.92;100842.94;5084489;28;20426;-89
2021/07/25 05:54:05;;;;;;;0.35;0.35;;;;;;;21.39;63.64;100839.47;5069110;28;20025;-89
2021/07/25 05:56:31;;;;;;;0.30;0.30;;;;;;;21.36;63.83;100839.66;5081031;28;20381;-90
2021/07/25 05:58:58;;;;;;;0.20;0.20;;;;;;;21.28;63.74;100846.44;5073226;28;20033;-89
2021/07/25 06:01:24;;;;;;;0.13;0.13;;;;;;;21.39;63.46;100837.63;5079564;28;20040;-89
2021/07/25 06:03:50;;;;;;;0.40;0.40;;;;;;;21.45;63.62;100841.75;5082982;28;20025;-89
2021/07/25 06:06:16;;;;;;;0.43;0.43;;;;;;;21.47;63.79;100842.50;5065905;28;20029;-91
2021/07/25 06:08:43;;;;;;;0.55;0.55;;;;;;;21.48;63.62;100838.84;5077009;28;20040;-91
2021/07/25 06:11:09;;;;;;;0.38;0.38;;;;;;;21.47;63.56;100835.28;5053053;28;20503;-90
2021/07/25 06:13:38;;;;;;;4.97;1.15;;;;;;;21.53;63.72;100834.00;5046614;28;20025;-90
2021/07/25 06:16:04;;;;;;;0.40;0.40;;;;;;;21.55;63.63;100837.47;5046263;28;20056;-91
2021/07/25 06:18:30;;;;;;;0.10;0.10;;;;;;;21.55;63.79;100840.16;5044306;28;20044;-91
2021/07/25 06:20:56;;;;;;;0.20;0.20;;;;;;;21.63;63.64;100840.56;5046066;28;20033;-91
2021/07/25 06:23:23;;;;;;;0.32;0.32;;;;;;;21.62;63.77;100833.44;5046387;28;20018;-90
2021/07/25 06:25:49;;;;;;;0.38;0.38;;;;;;;21.67;63.75;100834.94;5044395;28;20033;-91
2021/07/25 06:28:15;;;;;;;0.60;0.60;;;;;;;21.67;63.59;100834.94;5046412;28;20098;-91
2021/07/25 06:30:42;;;;;;;0.55;0.52;;;;;;;21.62;63.88;100836.13;5047315;28;20025;-92
2021/07/25 06:33:09;;;;;;;0.47;0.47;;;;;;;21.80;63.33;100825.06;5044948;28;20037;-91
2021/07/25 06:35:39;;;;;;;0.55;0.55;;;;;;;21.91;63.10;100827.06;5049582;28;20029;-91
2021/07/25 06:38:10;;;;;;;0.20;0.20;;;;;;;21.93;63.12;100825.97;5045610;28;20049;-92
2021/07/25 06:40:38;;;;;;;0.20;0.20;;;;;;;21.92;63.00;100828.75;5062462;28;20040;-91
2021/07/25 06:43:05;;;;;;;0.65;0.65;;;;;;;21.95;63.20;100823.16;5059038;28;20064;-90
2021/07/25 06:45:38;;;;;;;0.20;0.20;;;;;;;22.07;62.99;100822.31;5071092;28;20151;-88
2021/07/25 06:48:17;;;;;;;0.65;0.65;;;;;;;22.07;63.22;100811.53;5065659;28;20104;-88
2021/07/25 06:50:43;;;;;;;0.70;0.70;;;;;;;22.13;63.46;100826.41;5061090;28;20041;-85
2021/07/25 06:53:09;;;;;;;0.75;0.75;;;;;;;22.18;63.39;100823.41;5064099;28;20036;-86
2021/07/25 06:55:38;;;;;;;1.38;0.73;;;;;;;22.23;63.48;100821.25;5046561;28;20029;-86
2021/07/25 06:58:04;;;;;;;0.43;0.43;;;;;;;22.25;63.45;100822.88;5045189;28;20052;-88
2021/07/25 07:00:30;;;;;;;0.73;0.73;;;;;;;22.29;62.94;100815.44;5049305;28;20491;-87
2021/07/25 07:02:58;;;;;;;0.40;0.40;;;;;;;22.14;63.24;100815.53;5046376;28;20068;-85
2021/07/25 07:05:26;;;;;;;0.20;0.20;;;;;;;22.17;63.64;100822.56;5051146;28;20431;-91
2021/07/25 07:07:54;;;;;;;0.30;0.30;;;;;;;22.29;63.40;100813.59;5043077;28;20029;-92
2021/07/25 07:10:25;;;;;;;0.20;0.20;;;;;;;22.31;63.47;100818.91;5035517;28;20381;-88
2021/07/25 07:12:53;;;;;;;0.85;0.85;;;;;;;22.22;63.44;100820.41;5044154;28;20040;-89
2021/07/25 07:15:22;;;;;;;0.85;0.82;;;;;;;22.41;63.37;100824.53;5035577;28;20036;-84
2021/07/25 07:17:49;;;;;;;0.10;0.10;;;;;;;22.55;63.16;100823.56;5048506;28;20033;-90
2021/07/25 07:20:15;;;;;;;1.52;1.42;;;;;;;22.56;63.00;100820.75;5034801;28;20030;-92
2021/07/25 07:22:42;;;;;;;0.52;0.52;;;;;;;22.74;62.70;100831.22;5041438;28;20084;-91
2021/07/25 07:25:09;;;;;;;0.57;0.57;;;;;;;22.80;62.74;100828.06;5043890;28;20419;-91
2021/07/25 07:27:36;;;;;;;0.98;0.75;;;;;;;22.91;62.56;100822.75;5046005;28;20025;-86
2021/07/25 07:30:03;;;;;;;0.20;0.20;;;;;;;22.92;62.36;100835.28;5045121;28;20037;-93
2021/07/25 07:32:30;;;;;;;1.10;1.10;;;;;;;23.06;62.17;100836.13;5042818;28;20029;-84
2021/07/25 07:34:56;;;;;;;0.63;0.63;;;;;;;23.13;62.23;100840.13;5049271;28;20112;-88
2021/07/25 07:37:22;;;;;;;0.40;0.40;;;;;;;23.13;62.06;100837.41;5047809;28;20025;-88
2021/07/25 07:39:48;;;;;;;1.00;0.90;;;;;;;23.19;62.32;100839.69;5043983;28;20048;-89
2021/07/25 07:42:15;;;;;;;0.60;0.60;;;;;;;23.26;61.95;100846.38;5044764;28;20035;-89
2021/07/25 07:44:41;;;;;;;0.32;0.32;;;;;;;23.44;61.65;100840.59;5044051;28;20017;-89
2021/07/25 07:47:08;;;;;;;0.10;0.10;;;;;;;23.53;61.53;100842.59;5045787;28;20044;-88
2021/07/25 07:49:35;;;;;;;0.40;0.40;;;;;;;23.50;61.61;100848.25;5045010;28;20029;-86
2021/07/25 07:52:03;;;;;;;0.20;0.20;;;;;;;23.60;61.37;100851.09;5044237;28;20022;-85
2021/07/25 07:54:29;;;;;;;0.65;0.65;;;;;;;23.77;60.95;100852.53;5043013;28;20040;-90
2021/07/25 07:56:57;;;;;;;0.70;0.70;;;;;;;23.84;60.78;100856.50;5045017;28;20021;-86
2021/07/25 07:59:24;;;;;;;0.70;0.70;;;;;;;23.90;60.63;100845.22;5048456;28;20123;-87
2021/07/25 08:01:57;;;;;;;0.10;0.10;;;;;;;23.99;59.72;100848.22;5047523;28;20029;-88
2021/07/25 08:04:25;;;;;;;0.65;0.65;;;;;;;24.06;59.79;100844.06;5040529;28;20029;-87
2021/07/25 08:06:53;;;;;;;0.55;0.50;;;;;;;24.15;59.70;100837.94;5038308;28;20048;-88
2021/07/25 08:09:20;;;;;;;0.10;0.10;;;;;;;24.21;59.46;100833.88;5038492;28;20100;-86
2021/07/25 08:11:46;;;;;;;0.55;0.55;;;;;;;24.23;59.56;100832.78;5041905;28;20049;-87
2021/07/25 08:14:15;;;;;;;1.48;1.38;;;;;;;24.36;59.50;100826.41;5038251;28;20033;-87
2021/07/25 08:16:43;;;;;;;0.73;0.73;;;;;;;24.44;58.66;100829.38;5042313;28;20033;-87
2021/07/25 08:19:10;;;;;;;0.10;0.10;;;;;;;24.56;59.01;100824.81;5042128;28;20063;-87
2021/07/25 08:21:40;;;;;;;0.10;0.10;;;;;;;24.71;58.62;100830.91;5040370;28;20108;-87
2021/07/25 08:24:08;;;;;;;0.10;0.10;;;;;;;24.78;58.25;100826.72;5039569;28;20071;-88
2021/07/25 08:26:35;;;;;;;0.10;0.10;;;;;;;24.87;58.63;100825.09;5041723;28;20021;-88
2021/07/25 08:29:02;;;;;;;0.75;0.75;;;;;;;24.96;58.03;100826.22;5037908;28;20053;-88
2021/07/25 08:31:28;;;;;;;0.45;0.45;;;;;;;25.01;57.69;100826.69;5038702;28;20056;-87
2021/07/25 08:33:55;;;;;;;0.65;0.40;;;;;;;25.17;57.80;100827.19;5039652;28;20492;-87
2021/07/25 08:36:22;;;;;;;0.52;0.52;;;;;;;25.33;57.50;100831.31;5038628;28;20045;-88
2021/07/25 08:38:49;;;;;;;0.10;0.10;;;;;;;25.46;57.50;100834.78;5046390;28;20021;-87
2021/07/25 08:47:01;;;;;;;0.10;0.10;;;;;;;25.83;56.30;100837.13;5069136;28;20406;-87
2021/07/25 08:49:41;;;;;;;1.23;1.20;;;;;;;25.99;55.64;100838.50;5041427;28;20025;-86
2021/07/25 08:52:16;;;;;;;0.30;0.30;;;;;;;26.19;56.40;100839.53;5028595;28;20038;-87
2021/07/25 08:54:43;;;;;;;0.32;0.32;;;;;;;26.23;55.29;100840.13;5030199;28;20091;-86
2021/07/25 08:57:14;;;;;;;0.30;0.30;;;;;;;26.41;54.87;100841.25;5030359;28;20420;-87
2021/07/25 08:59:44;;;;;;;0.10;0.10;;;;;;;26.50;52.77;100836.00;5027195;28;20104;-86
2021/07/25 09:05:01;;;;;;;0.20;0.20;;;;;;;26.70;51.47;100845.97;5143452;27;20406;-89
2021/07/25 09:07:30;;;;;;;0.20;0.20;;;;;;;26.83;53.27;100848.50;5130608;27;20027;-90
2021/07/25 09:10:01;;;;;;;0.10;0.10;;;;;;;26.84;51.08;100838.47;5116930;28;20168;-85
2021/07/25 09:12:30;;;;;;;1.00;1.00;;;;;;;26.96;53.06;100842.81;5100917;28;20036;-84
2021/07/25 09:14:59;;;;;;;0.20;0.20;;;;;;;27.11;53.47;100836.00;5103525;28;20039;-84
2021/07/25 09:17:26;;;;;;;0.15;0.15;;;;;;;27.31;53.27;100836.03;5109314;28;20036;-85
2021/07/25 09:20:14;;;;;;;0.13;0.13;;;;;;;27.52;52.42;100849.56;5111534;28;20089;-86
2021/07/25 09:22:57;;;;;;;0.55;0.55;;;;;;;27.57;50.85;100846.44;5110126;28;20024;-84
2021/07/25 09:30:53;;;;;;;0.10;0.10;;;;;;;27.86;50.99;100851.03;4945808;27;4058816;-86
2021/07/25 09:36:12;;;;;;;0.25;0.25;;;;;;;27.92;50.09;100861.34;5090845;27;20406;-86
2021/07/25 09:38:40;;;;;;;0.20;0.20;;;;;;;27.74;49.14;100858.47;5067451;28;20043;-85
2021/07/25 09:41:20;;;;;;;0.40;0.40;;;;;;;27.80;48.00;100852.44;5052146;28;20043;-86
2021/07/25 09:44:08;;;;;;;0.20;0.20;;;;;;;27.97;47.98;100852.75;5034998;28;20059;-85
2021/07/25 09:46:44;;;;;;;0.30;0.30;;;;;;;28.12;48.15;100853.19;5038569;28;20034;-86
2021/07/25 09:49:14;;;;;;;0.22;0.22;;;;;;;28.23;48.63;100845.69;5030527;28;20034;-86
2021/07/25 09:51:41;;;;;;;0.15;0.15;;;;;;;28.25;47.84;100856.44;5030449;28;20116;-87
2021/07/25 09:54:07;;;;;;;0.40;0.40;;;;;;;28.15;45.63;100855.59;5048492;28;20061;-86
2021/07/25 09:56:33;;;;;;;1.38;0.40;;;;;;;28.29;45.85;100847.00;5048567;28;20030;-85
2021/07/25 09:59:00;;;;;;;0.20;0.20;;;;;;;28.33;45.21;100853.84;5045999;28;20024;-89
2021/07/25 10:01:44;;;;;;;0.65;0.65;;;;;;;28.38;44.91;100851.56;5050757;28;20041;-96
2021/07/25 10:06:55;;;;;;;0.43;0.43;;;;;;;28.39;45.26;100857.88;5091203;27;20417;-85
2021/07/25 10:09:29;;;;;;;0.47;0.47;;;;;;;28.20;43.53;100853.31;5060806;28;20039;-84
2021/07/25 10:11:58;;;;;;;0.20;0.20;;;;;;;28.37;43.83;100855.28;5045946;28;20040;-84
2021/07/25 10:14:29;;;;;;;0.20;0.20;;;;;;;28.28;42.54;100849.88;5043067;28;20358;-87
2021/07/25 10:16:57;;;;;;;0.15;0.15;;;;;;;28.49;42.38;100841.50;5048675;28;20075;-83
2021/07/25 10:19:36;;;;;;;0.30;0.30;;;;;;;28.49;41.77;100831.44;5030465;28;20539;-86
2021/07/25 10:22:09;;;;;;;0.50;0.35;;;;;;;28.58;42.56;100836.00;5039608;28;20089;-82
2021/07/25 10:24:37;;;;;;;0.32;0.15;;;;;;;28.50;42.43;100826.84;5048285;28;20029;-86
2021/07/25 10:27:05;;;;;;;0.63;0.63;;;;;;;28.25;43.33;100840.09;5047908;28;20031;-84
2021/07/25 10:29:32;;;;;;;0.43;0.43;;;;;;;28.50;43.19;100825.00;5044034;28;20507;-84
2021/07/25 10:32:00;;;;;;;0.20;0.20;;;;;;;28.52;43.40;100830.28;5030788;28;20038;-84
2021/07/25 10:34:31;;;;;;;0.10;0.10;;;;;;;28.39;42.66;100836.09;5038733;28;20091;-85
2021/07/25 10:36:57;;;;;;;0.40;0.40;;;;;;;28.57;43.00;100841.59;5039024;28;20346;-85
2021/07/25 10:39:27;;;;;;;0.20;0.20;;;;;;;28.69;43.14;100829.53;5038792;28;20060;-84
2021/07/25 10:41:58;;;;;;;0.85;0.85;;;;;;;28.80;42.80;100827.63;5031389;28;20062;-84
2021/07/25 10:44:25;;;;;;;0.85;0.85;;;;;;;28.73;42.09;100828.22;5030361;28;20135;-84
2021/07/25 10:47:18;;;;;;;0.10;0.10;;;;;;;28.25;40.98;100834.66;5043707;28;20064;-84
2021/07/25 10:49:44;;;;;;;0.88;0.88;;;;;;;28.17;41.71;100842.72;5030927;28;20029;-84
2021/07/25 10:52:11;;;;;;;0.10;0.10;;;;;;;28.40;41.52;100827.75;5029519;28;20025;-84
2021/07/25 10:54:48;;;;;;;0.40;0.40;;;;;;;28.40;41.87;100848.69;5029616;28;20034;-84
2021/07/25 10:57:20;;;;;;;0.10;0.10;;;;;;;28.58;41.82;100836.00;5029753;28;20075;-84
2021/07/25 10:59:52;;;;;;;0.22;0.22;;;;;;;28.65;41.06;100835.41;5030275;28;20068;-83
2021/07/25 11:05:05;;;;;;;0.10;0.10;;;;;;;28.70;41.00;100842.16;5092020;28;20791;-83
2021/07/25 11:10:11;;;;;;;0.20;0.20;;;;;;;28.70;39.73;100839.44;4984406;27;2547847;-84
2021/07/25 11:15:44;;;;;;;0.10;0.10;;;;;;;29.25;39.45;100826.81;5069174;28;20431;-84
2021/07/25 11:18:12;;;;;;;0.10;0.10;;;;;;;29.17;39.04;100818.53;5068477;28;20083;-84
2021/07/25 11:20:41;;;;;;;0.25;0.25;;;;;;;29.49;38.46;100828.97;5068838;28;20069;-84
2021/07/25 11:26:19;;;;;;;0.20;0.20;;;;;;;29.25;39.65;100832.28;5073997;28;20979;-84
2021/07/25 11:28:55;;;;;;;0.25;0.25;;;;;;;29.51;39.64;100828.84;5064716;28;20049;-84
2021/07/25 11:31:34;;;;;;;0.20;0.20;;;;;;;29.59;42.21;100828.06;5047884;28;20068;-83
2021/07/25 11:34:01;;;;;;;0.73;0.55;;;;;;;29.58;44.65;100827.19;5048402;28;20452;-83
2021/07/25 11:36:27;;;;;;;0.10;0.10;;;;;;;29.74;44.31;100823.75;5046867;28;20120;-83
2021/07/25 11:38:59;;;;;;;0.28;0.28;;;;;;;29.86;46.12;100818.91;5044733;28;20029;-84
2021/07/25 11:41:30;;;;;;;0.35;0.35;;;;;;;30.11;44.03;100817.25;5048190;28;20025;-85
2021/07/25 11:44:02;;;;;;;0.30;0.30;;;;;;;30.12;44.10;100826.28;5048692;28;20433;-83
2021/07/25 11:51:55;;;;;;;0.57;0.57;;;;;;;30.01;44.30;100828.28;5070661;28;20963;-82
2021/07/25 11:54:27;;;;;;;0.40;0.40;;;;;;;30.16;44.40;100824.97;5068368;28;20506;-84
2021/07/25 11:57:15;;;;;;;0.65;0.65;;;;;;;29.92;44.65;100833.81;5069844;28;20111;-84
2021/07/25 11:59:52;;;;;;;0.60;0.60;;;;;;;29.17;44.85;100824.88;5058931;28;20484;-84
2021/07/25 12:02:27;;;;;;;0.75;0.50;;;;;;;29.45;44.83;100832.19;5046078;28;20029;-83
2021/07/25 12:04:55;;;;;;;1.85;0.90;;;;;;;29.47;45.43;100830.13;5047625;28;20041;-84
2021/07/25 12:07:30;;;;;;;1.33;1.10;;;;;;;29.47;45.04;100824.69;5031591;28;20108;-83
2021/07/25 12:09:56;;;;;;;1.50;1.42;;;;;;;29.84;45.19;100826.41;5029486;28;20504;-84
2021/07/25 12:12:27;;;;;;;0.70;0.70;;;;;;;30.17;45.57;100834.91;5031672;28;20117;-83
2021/07/25 12:14:57;;;;;;;1.10;0.82;;;;;;;30.37;42.76;100834.66;5030389;28;20030;-83
2021/07/25 12:23:12;;;;;;;0.80;0.80;;;;;;;30.29;43.94;100832.75;5045742;27;1333541;-87